createdAt,value
2023-05-01T00:05:02.845Z,42.15
2023-05-01T00:10:05.049Z,41.95
2023-05-01T00:15:07.647Z,42.46
2023-05-01T00:20:10.092Z,41.89
2023-05-01T00:25:11.955Z,42.33
2023-05-01T00:30:13.908Z,42.53
2023-05-01T00:35:16.659Z,42.61
2023-05-01T00:40:18.608Z,42.49
2023-05-01T00:45:20.536Z,42.20
2023-05-01T00:50:22.723Z,42.82
2023-05-01T00:55:25.116Z,43.27
2023-05-01T01:00:26.900Z,43.14
2023-05-01T01:05:30.456Z,44.17
2023-05-01T01:11:08.453Z,43.62
2023-05-01T01:16:21.723Z,43.94
2023-05-01T01:21:29.959Z,44.14
2023-05-01T01:26:56.964Z,44.60
2023-05-01T01:32:26.989Z,44.26
2023-05-01T01:37:35.746Z,44.18
2023-05-01T01:42:52.297Z,44.57
2023-05-01T01:47:56.638Z,45.03
2023-05-01T01:53:01.858Z,44.56
2023-05-01T01:58:05.375Z,44.44
2023-05-01T02:03:09.384Z,44.82
2023-05-01T02:08:14.843Z,44.60
2023-05-01T02:13:18.517Z,44.39
2023-05-01T02:18:21.358Z,44.54
2023-05-01T02:23:24.818Z,45.03
2023-05-01T02:28:29.951Z,44.96
2023-05-01T02:33:31.682Z,44.78
2023-05-01T02:38:33.607Z,45.05
2023-05-01T02:43:37.211Z,44.36
2023-05-01T02:48:39.934Z,45.22
2023-05-01T02:53:42.668Z,45.19
2023-05-01T02:58:53.535Z,44.96
2023-05-01T03:03:55.563Z,44.62
2023-05-01T03:08:57.359Z,44.03
2023-05-01T03:13:59.188Z,44.73
2023-05-01T03:19:00.989Z,45.20
2023-05-01T03:24:03.424Z,44.67
2023-05-01T03:29:06.259Z,44.65
2023-05-01T03:34:08.147Z,45.09
2023-05-01T03:39:09.916Z,44.63
2023-05-01T03:44:37.641Z,44.88
2023-05-01T03:49:39.537Z,44.76
2023-05-01T03:54:41.373Z,44.99
2023-05-01T04:00:11.860Z,44.78
2023-05-01T04:05:22.218Z,44.89
2023-05-01T04:10:32.025Z,44.50
2023-05-01T04:15:39.168Z,44.77
2023-05-01T04:20:41.059Z,44.35
2023-05-01T04:25:42.943Z,44.20
2023-05-01T04:30:48.405Z,44.25
2023-05-01T04:35:50.245Z,43.79
2023-05-01T04:40:52.715Z,44.22
2023-05-01T04:45:54.874Z,44.21
2023-05-01T04:50:57.665Z,44.64
2023-05-01T04:56:02.417Z,44.72
2023-05-01T05:01:05.969Z,44.35
2023-05-01T05:06:08.011Z,44.12
2023-05-01T05:11:11.114Z,44.34
2023-05-01T05:16:32.902Z,44.28
2023-05-01T05:21:35.321Z,44.13
2023-05-01T05:26:38.270Z,44.08
2023-05-01T05:31:40.829Z,44.20
2023-05-01T05:36:43.103Z,44.37
2023-05-01T05:41:45.335Z,44.01
2023-05-01T05:46:47.736Z,44.33
2023-05-01T05:51:57.101Z,44.06
2023-05-01T05:56:59.855Z,44.06
2023-05-01T06:02:02.744Z,44.21
2023-05-01T06:07:06.394Z,44.16
2023-05-01T06:12:08.210Z,44.11
2023-05-01T06:17:10.281Z,44.11
2023-05-01T06:22:12.392Z,44.25
2023-05-01T06:27:25.001Z,44.01
2023-05-01T06:32:26.845Z,44.14
2023-05-01T06:37:28.745Z,44.07
2023-05-01T06:42:30.927Z,43.84
2023-05-01T06:47:36.611Z,43.69
2023-05-01T06:52:38.462Z,43.41
2023-05-01T06:57:42.946Z,43.07
2023-05-01T07:02:47.162Z,42.80
2023-05-01T07:07:57.941Z,42.33
2023-05-01T07:13:02.693Z,41.99
2023-05-01T07:18:06.297Z,41.60
2023-05-01T07:23:09.850Z,41.03
2023-05-01T07:28:12.039Z,39.79
2023-05-01T07:33:13.915Z,39.11
2023-05-01T07:38:17.028Z,38.10
2023-05-01T07:43:18.922Z,37.88
2023-05-01T07:48:20.955Z,36.99
2023-05-01T07:53:23.034Z,36.09
2023-05-01T07:58:24.919Z,35.48
2023-05-01T08:03:29.713Z,35.01
2023-05-01T08:08:31.664Z,34.75
2023-05-01T08:13:33.508Z,34.18
2023-05-01T08:18:35.360Z,34.05
2023-05-01T08:23:37.249Z,33.94
2023-05-01T08:28:39.096Z,33.79
2023-05-01T08:33:44.301Z,33.67
2023-05-01T08:38:46.120Z,33.10
2023-05-01T08:43:49.179Z,32.30
2023-05-01T08:48:53.032Z,32.14
2023-05-01T08:53:58.320Z,32.16
2023-05-01T08:59:03.921Z,32.22
2023-05-01T09:04:07.040Z,32.15
2023-05-01T09:09:08.813Z,31.87
2023-05-01T09:14:10.718Z,31.94
2023-05-01T09:19:12.774Z,31.91
2023-05-01T09:24:14.649Z,31.83
2023-05-01T09:29:46.717Z,31.44
2023-05-01T09:34:50.053Z,31.22
2023-05-01T09:40:11.674Z,31.61
2023-05-01T09:45:14.982Z,31.60
2023-05-01T09:50:31.577Z,31.48
2023-05-01T09:55:34.905Z,30.83
2023-05-01T10:00:51.790Z,30.67
2023-05-01T10:05:56.915Z,30.27
2023-05-01T10:11:05.416Z,30.47
2023-05-01T10:16:08.666Z,30.28
2023-05-01T10:21:10.905Z,30.39
2023-05-01T10:26:14.447Z,30.20
2023-05-01T10:31:17.077Z,30.58
2023-05-01T10:36:36.612Z,30.37
2023-05-01T10:42:06.402Z,30.16
2023-05-01T10:47:31.366Z,30.11
2023-05-01T10:53:20.314Z,29.84
2023-05-01T10:58:51.453Z,29.64
2023-05-01T11:03:53.152Z,30.05
2023-05-01T11:08:55.128Z,29.33
2023-05-01T11:14:08.382Z,29.21
2023-05-01T11:19:38.927Z,28.89
2023-05-01T11:24:41.405Z,28.92
2023-05-01T11:29:45.299Z,28.60
2023-05-01T11:34:49.524Z,28.41
2023-05-01T11:39:52.709Z,27.62
2023-05-01T11:45:12.855Z,27.42
2023-05-01T11:55:16.939Z,27.24
2023-05-01T12:00:41.866Z,26.77
2023-05-01T12:05:45.210Z,26.56
2023-05-01T12:10:52.694Z,26.19
2023-05-01T12:15:56.620Z,25.97
2023-05-01T12:20:58.855Z,25.67
2023-05-01T12:26:00.943Z,25.82
2023-05-01T12:31:05.522Z,25.86
2023-05-01T12:36:11.930Z,25.70
2023-05-01T12:41:13.740Z,25.55
2023-05-01T12:46:16.824Z,25.39
2023-05-01T12:51:20.083Z,25.70
2023-05-01T12:56:25.812Z,25.67
2023-05-01T13:01:29.021Z,25.11
2023-05-01T13:06:34.178Z,25.37
2023-05-01T13:11:36.408Z,25.47
2023-05-01T13:16:46.603Z,25.47
2023-05-01T13:21:49.696Z,25.56
2023-05-01T13:27:02.793Z,25.39
2023-05-01T13:32:06.866Z,25.32
2023-05-01T13:37:14.341Z,25.51
2023-05-01T13:42:26.140Z,25.65
2023-05-01T13:47:28.156Z,25.47
2023-05-01T13:52:30.028Z,25.17
2023-05-01T13:57:31.934Z,25.19
2023-05-01T14:02:33.902Z,24.69
2023-05-01T14:07:45.221Z,24.73
2023-05-01T14:12:46.999Z,25.01
2023-05-01T14:17:50.424Z,24.79
2023-05-01T14:22:54.448Z,25.12
2023-05-01T14:27:57.995Z,25.74
2023-05-01T14:33:08.704Z,25.76
2023-05-01T14:38:14.861Z,26.25
2023-05-01T14:43:20.488Z,26.26
2023-05-01T14:48:24.061Z,26.40
2023-05-01T14:53:27.432Z,26.48
2023-05-01T14:58:29.358Z,26.74
2023-05-01T15:03:31.905Z,27.19
2023-05-01T15:08:33.766Z,27.39
2023-05-01T15:13:36.476Z,27.89
2023-05-01T15:18:38.903Z,27.91
2023-05-01T15:23:45.203Z,27.97
2023-05-01T15:28:47.097Z,28.20
2023-05-01T15:33:48.995Z,28.47
2023-05-01T15:38:50.930Z,28.89
2023-05-01T15:43:52.732Z,28.95
2023-05-01T15:48:54.492Z,29.11
2023-05-01T15:53:57.041Z,29.12
2023-05-01T15:59:02.335Z,29.29
2023-05-01T16:04:04.718Z,29.14
2023-05-01T16:09:06.534Z,29.19
2023-05-01T16:14:09.302Z,29.39
2023-05-01T16:19:16.201Z,29.25
2023-05-01T16:24:18.192Z,29.33
2023-05-01T16:29:20.118Z,29.33
2023-05-01T16:34:25.465Z,29.47
2023-05-01T16:39:27.336Z,29.50
2023-05-01T16:44:29.865Z,29.61
2023-05-01T16:49:32.504Z,29.82
2023-05-01T16:54:36.415Z,30.14
2023-05-01T16:59:38.715Z,30.25
2023-05-01T17:04:41.197Z,30.37
2023-05-01T17:09:43.053Z,30.24
2023-05-01T17:14:44.900Z,30.12
2023-05-01T17:19:46.665Z,30.22
2023-05-01T17:24:48.533Z,30.31
2023-05-01T17:29:50.325Z,30.40
2023-05-01T17:34:52.128Z,30.60
2023-05-01T17:39:53.937Z,30.64
2023-05-01T17:44:55.825Z,30.66
2023-05-01T17:49:57.881Z,30.88
2023-05-01T17:55:00.439Z,30.90
2023-05-01T18:00:02.490Z,30.96
2023-05-01T18:05:14.028Z,31.06
2023-05-01T18:10:16.799Z,31.11
2023-05-01T18:15:22.879Z,31.33
2023-05-01T18:20:25.564Z,31.65
2023-05-01T18:25:28.238Z,31.96
2023-05-01T18:30:30.031Z,31.88
2023-05-01T18:35:32.152Z,32.13
2023-05-01T18:40:34.022Z,32.31
2023-05-01T18:45:35.997Z,32.33
2023-05-01T18:50:37.972Z,32.16
2023-05-01T18:55:39.888Z,32.26
2023-05-01T19:00:41.685Z,32.32
2023-05-01T19:05:43.634Z,32.43
2023-05-01T19:10:45.654Z,32.60
2023-05-01T19:15:47.560Z,32.72
2023-05-01T19:20:49.649Z,32.53
2023-05-01T19:25:51.448Z,32.74
2023-05-01T19:30:53.251Z,32.75
2023-05-01T19:35:55.805Z,32.70
2023-05-01T19:40:57.616Z,32.67
2023-05-01T19:45:59.461Z,32.83
2023-05-01T19:51:01.269Z,33.00
2023-05-01T19:56:03.066Z,33.27
2023-05-01T20:01:08.506Z,33.93
2023-05-01T20:06:10.407Z,34.46
2023-05-01T20:11:12.281Z,34.81
2023-05-01T20:16:14.146Z,35.96
2023-05-01T20:21:15.941Z,36.57
2023-05-01T20:26:19.080Z,36.96
2023-05-01T20:31:21.442Z,37.43
2023-05-01T20:36:25.404Z,38.16
2023-05-01T20:41:29.168Z,38.91
2023-05-01T20:46:31.323Z,40.05
2023-05-01T20:51:33.246Z,40.65
2023-05-01T20:56:35.114Z,41.57
2023-05-01T21:01:36.941Z,41.72
2023-05-01T21:06:38.811Z,41.99
2023-05-01T21:11:41.080Z,42.27
2023-05-01T21:16:43.063Z,42.97
2023-05-01T21:21:44.932Z,43.82
2023-05-01T21:26:46.803Z,44.34
2023-05-01T21:31:49.262Z,44.91
2023-05-01T21:36:51.095Z,44.99
2023-05-01T21:41:53.150Z,44.70
2023-05-01T21:46:57.137Z,45.31
2023-05-01T21:52:00.019Z,45.77
2023-05-01T21:57:05.362Z,45.90
2023-05-01T22:02:12.030Z,45.81
2023-05-01T22:07:13.888Z,45.81
2023-05-01T22:12:15.673Z,46.46
2023-05-01T22:17:24.125Z,46.51
2023-05-01T22:22:26.059Z,47.60
2023-05-01T22:27:27.902Z,47.87
2023-05-01T22:32:29.822Z,47.11
2023-05-01T22:37:31.605Z,47.46
2023-05-01T22:42:33.431Z,48.71
2023-05-01T22:47:35.304Z,48.58
2023-05-01T22:52:37.214Z,48.63
2023-05-01T22:57:39.056Z,48.31
2023-05-01T23:02:41.102Z,48.43
2023-05-01T23:07:44.208Z,48.65
2023-05-01T23:12:46.012Z,48.40
2023-05-01T23:17:47.926Z,47.76
2023-05-01T23:22:50.964Z,47.51
2023-05-01T23:27:54.901Z,47.15
2023-05-01T23:32:59.290Z,47.30
2023-05-01T23:38:01.241Z,46.76
2023-05-01T23:43:03.190Z,47.00
2023-05-01T23:48:05.361Z,46.53
2023-05-01T23:53:08.650Z,47.13
2023-05-01T23:58:10.636Z,47.25
